Time;durP1;ratioP1;P1;durP2;ratioP2;P2;SDS_P1;SDS_P2;PMS_P1;PMS_P2;Temp;Humidity;BMP_temperature;BMP_pressure;BME280_temperature;BME280_humidity;BME280_pressure;Samples;Min_cycle;Max_cycle;Signal;HPM_P1;HPM_P2
2022/04/16 04:02:39;;;;;;;4.57;3.58;;;3.10;99.90;;;;;;4965830;28;20689;-69
2022/04/16 04:05:07;;;;;;;4.57;3.80;;;3.10;99.90;;;;;;4978883;28;20800;-68
2022/04/16 04:07:33;;;;;;;4.32;3.92;;;3.10;99.90;;;;;;4986523;28;20616;-69
2022/04/16 04:10:00;;;;;;;3.78;3.47;;;3.10;99.90;;;;;;4978979;28;20209;-69
2022/04/16 04:12:27;;;;;;;4.97;4.13;;;3.10;99.90;;;;;;4971410;28;20228;-69
2022/04/16 04:14:54;;;;;;;4.65;4.07;;;3.10;99.90;;;;;;4961963;28;20701;-68
2022/04/16 04:17:21;;;;;;;4.45;4.15;;;3.10;99.90;;;;;;4952368;28;20284;-68
2022/04/16 04:19:49;;;;;;;8.02;4.50;;;3.10;99.90;;;;;;4957277;28;20681;-68
2022/04/16 04:22:17;;;;;;;4.05;3.85;;;3.10;99.90;;;;;;4970703;28;20227;-69
2022/04/16 04:24:45;;;;;;;4.93;4.45;;;3.10;99.90;;;;;;4964230;28;20210;-68
2022/04/16 04:27:12;;;;;;;3.53;3.33;;;3.10;99.90;;;;;;4953150;28;20213;-68
2022/04/16 04:29:39;;;;;;;5.45;4.10;;;3.10;99.90;;;;;;4951675;28;20737;-68
2022/04/16 04:32:06;;;;;;;4.10;3.00;;;3.00;99.90;;;;;;4952571;28;20225;-68
2022/04/16 04:34:33;;;;;;;4.35;3.83;;;3.10;99.90;;;;;;4956608;28;20263;-68
2022/04/16 04:37:01;;;;;;;5.68;4.47;;;3.10;99.90;;;;;;4971241;28;20263;-69
2022/04/16 04:39:28;;;;;;;8.05;4.53;;;3.10;99.90;;;;;;4969790;28;20212;-68
2022/04/16 04:41:55;;;;;;;6.15;4.80;;;3.00;99.90;;;;;;4973963;28;20327;-68
2022/04/16 04:44:22;;;;;;;4.22;3.80;;;3.10;99.90;;;;;;4959118;28;20204;-68
2022/04/16 04:46:48;;;;;;;4.63;3.63;;;3.10;99.90;;;;;;4947843;28;20202;-68
2022/04/16 04:49:15;;;;;;;5.63;4.95;;;3.10;99.90;;;;;;4955127;28;20205;-68
2022/04/16 04:51:42;;;;;;;8.23;4.55;;;3.30;99.90;;;;;;4950940;28;20225;-68
2022/04/16 04:54:10;;;;;;;5.55;4.95;;;3.80;99.90;;;;;;4966690;28;20225;-69
2022/04/16 04:56:37;;;;;;;8.15;4.88;;;4.20;99.90;;;;;;4971463;28;20259;-68
2022/04/16 04:59:04;;;;;;;5.68;5.18;;;4.50;99.90;;;;;;4964238;28;20209;-69
2022/04/16 05:01:31;;;;;;;4.25;3.90;;;4.70;99.90;;;;;;4950737;28;20287;-68
2022/04/16 05:03:57;;;;;;;4.70;4.30;;;4.80;99.90;;;;;;4955847;28;20692;-68
2022/04/16 05:06:24;;;;;;;3.95;3.75;;;4.70;99.90;;;;;;4952917;28;20612;-69
2022/04/16 05:08:52;;;;;;;4.20;3.90;;;4.60;99.90;;;;;;4959519;28;20569;-69
2022/04/16 05:11:20;;;;;;;5.70;3.80;;;4.60;99.90;;;;;;4973746;28;20311;-69
2022/04/16 05:13:46;;;;;;;4.30;3.95;;;4.60;99.90;;;;;;4964306;28;20351;-69
2022/04/16 05:16:13;;;;;;;3.53;3.33;;;4.70;99.90;;;;;;4955457;28;20248;-69
2022/04/16 05:18:40;;;;;;;4.25;3.88;;;4.70;99.90;;;;;;4972084;28;20681;-68
2022/04/16 05:21:07;;;;;;;5.03;3.40;;;4.60;99.90;;;;;;4954483;28;20649;-69
2022/04/16 05:23:35;;;;;;;3.47;3.28;;;4.60;99.90;;;;;;4955092;28;20209;-69
2022/04/16 05:26:03;;;;;;;4.25;3.75;;;4.60;99.90;;;;;;4955245;28;20209;-68
2022/04/16 05:28:31;;;;;;;3.50;3.22;;;4.50;99.90;;;;;;4972191;28;20196;-69
2022/04/16 05:30:58;;;;;;;3.67;3.33;;;4.50;99.90;;;;;;4971931;28;20235;-69
2022/04/16 05:36:09;;;;;;;3.50;3.30;;;4.60;99.90;;;;;;4974371;28;20262;-69
2022/04/16 05:38:36;;;;;;;3.50;2.92;;;4.70;99.90;;;;;;4973105;28;20255;-69
2022/04/16 05:41:02;;;;;;;3.20;3.00;;;4.70;99.90;;;;;;4973565;28;20351;-69
2022/04/16 05:43:30;;;;;;;3.38;3.05;;;4.80;99.90;;;;;;4958400;28;20600;-68
2022/04/16 05:45:57;;;;;;;4.03;3.83;;;4.90;99.90;;;;;;4963724;28;20219;-69
2022/04/16 05:48:24;;;;;;;3.60;3.40;;;5.00;99.90;;;;;;4973071;28;20209;-69
2022/04/16 05:50:51;;;;;;;3.30;3.10;;;5.10;99.90;;;;;;4973602;28;20290;-68
2022/04/16 05:53:18;;;;;;;4.82;3.28;;;5.40;99.90;;;;;;4970585;28;20288;-68
2022/04/16 05:55:47;;;;;;;3.17;2.95;;;5.50;99.90;;;;;;4973434;28;20224;-67
2022/04/16 05:58:14;;;;;;;3.95;3.65;;;5.70;99.90;;;;;;4972132;28;20540;-67
2022/04/16 06:00:42;;;;;;;3.42;3.28;;;5.90;99.90;;;;;;4967622;28;20930;-70
2022/04/16 06:03:09;;;;;;;3.20;3.00;;;6.00;99.90;;;;;;4960717;28;20279;-69
2022/04/16 06:05:36;;;;;;;2.80;2.70;;;6.60;99.90;;;;;;4956100;28;20591;-69
2022/04/16 06:08:04;;;;;;;3.22;3.03;;;7.10;99.90;;;;;;4973908;28;20223;-68
2022/04/16 06:10:30;;;;;;;2.80;2.70;;;7.60;99.90;;;;;;4935584;28;20237;-69
2022/04/16 06:12:57;;;;;;;3.75;3.55;;;7.40;99.90;;;;;;4962510;28;20201;-69
2022/04/16 06:15:24;;;;;;;2.67;2.58;;;7.20;99.90;;;;;;4953615;28;20259;-69
2022/04/16 06:17:52;;;;;;;2.88;2.67;;;6.70;99.90;;;;;;4971439;28;20664;-68
2022/04/16 06:20:18;;;;;;;3.42;3.13;;;6.30;99.90;;;;;;4955779;28;20651;-68
2022/04/16 06:22:45;;;;;;;3.58;3.38;;;6.20;99.90;;;;;;4961878;28;20252;-67
2022/04/16 06:25:12;;;;;;;2.58;2.38;;;6.00;99.90;;;;;;4953749;28;20287;-67
2022/04/16 06:27:40;;;;;;;2.97;2.80;;;6.00;99.90;;;;;;4962413;28;20213;-67
2022/04/16 06:30:09;;;;;;;3.17;2.80;;;5.90;99.90;;;;;;4953799;28;20288;-67
2022/04/16 06:32:36;;;;;;;2.67;2.28;;;5.90;99.90;;;;;;4964387;28;20202;-67
2022/04/16 06:35:05;;;;;;;3.60;2.85;;;5.80;99.90;;;;;;4950633;28;20737;-68
2022/04/16 06:37:32;;;;;;;3.05;2.85;;;5.70;99.90;;;;;;4952217;29;20209;-68
2022/04/16 06:39:59;;;;;;;3.92;2.53;;;5.70;99.90;;;;;;4958571;28;20828;-69
2022/04/16 06:42:26;;;;;;;2.28;2.20;;;5.80;99.90;;;;;;4964978;28;20725;-67
2022/04/16 06:44:53;;;;;;;2.72;2.63;;;5.80;99.90;;;;;;4959028;28;20224;-68
2022/04/16 06:47:20;;;;;;;2.60;2.40;;;5.80;99.90;;;;;;4971751;28;20197;-68
2022/04/16 06:49:46;;;;;;;2.80;2.70;;;5.80;99.90;;;;;;4965921;28;20227;-68
2022/04/16 06:52:14;;;;;;;2.17;2.08;;;5.90;99.90;;;;;;4949346;28;20293;-68
2022/04/16 06:54:42;;;;;;;2.65;2.45;;;6.00;99.90;;;;;;4946002;28;20201;-68
2022/04/16 06:57:09;;;;;;;1.83;1.83;;;6.00;99.90;;;;;;4958635;28;20214;-68
2022/04/16 06:59:37;;;;;;;2.67;2.58;;;6.10;99.90;;;;;;4971498;28;20654;-67
2022/04/16 07:02:05;;;;;;;3.05;2.30;;;6.20;99.90;;;;;;4971655;28;20330;-68
2022/04/16 07:04:31;;;;;;;2.45;2.30;;;6.20;99.90;;;;;;4969711;28;20685;-68
2022/04/16 07:06:58;;;;;;;2.05;1.95;;;6.30;99.90;;;;;;4956941;28;20267;-68
2022/04/16 07:09:26;;;;;;;1.88;1.77;;;6.30;99.90;;;;;;4971693;28;20212;-68
2022/04/16 07:11:53;;;;;;;2.00;2.00;;;6.40;99.90;;;;;;4971193;28;20620;-67
2022/04/16 07:14:20;;;;;;;2.55;2.35;;;6.50;99.90;;;;;;4972357;28;20201;-69
2022/04/16 07:16:46;;;;;;;1.95;1.95;;;6.60;99.90;;;;;;4970231;28;20299;-68
2022/04/16 07:19:13;;;;;;;1.65;1.60;;;6.70;99.90;;;;;;4961945;28;20575;-68
2022/04/16 07:21:40;;;;;;;1.50;1.50;;;6.70;99.90;;;;;;4966853;28;20225;-69
2022/04/16 07:24:07;;;;;;;1.58;1.58;;;6.70;99.90;;;;;;4962826;28;20704;-69
2022/04/16 07:26:35;;;;;;;2.70;1.48;;;6.80;99.90;;;;;;4953170;28;20221;-69
2022/04/16 07:29:01;;;;;;;2.33;2.22;;;6.90;99.90;;;;;;4953018;28;20272;-69
2022/04/16 07:31:28;;;;;;;1.92;1.83;;;6.90;99.90;;;;;;4950177;28;20284;-68
2022/04/16 07:33:54;;;;;;;2.25;1.90;;;7.00;99.90;;;;;;4952175;28;20205;-69
2022/04/16 07:36:21;;;;;;;1.50;1.50;;;7.10;99.90;;;;;;4953069;28;20332;-68
2022/04/16 07:38:48;;;;;;;1.60;1.45;;;7.20;99.90;;;;;;4950427;28;20212;-69
2022/04/16 07:41:14;;;;;;;1.45;1.40;;;7.20;99.90;;;;;;4950432;28;20724;-69
2022/04/16 07:43:42;;;;;;;1.60;1.45;;;7.30;99.90;;;;;;4952682;28;20205;-67
2022/04/16 07:46:09;;;;;;;1.10;1.10;;;7.30;99.90;;;;;;4952183;28;20246;-67
2022/04/16 07:48:37;;;;;;;0.75;0.75;;;7.40;99.90;;;;;;4952333;28;20288;-69
2022/04/16 07:51:04;;;;;;;3.42;1.20;;;7.50;99.90;;;;;;4952450;28;20237;-68
2022/04/16 07:53:31;;;;;;;1.80;0.90;;;7.50;99.90;;;;;;4953477;28;20251;-69
2022/04/16 07:55:58;;;;;;;1.02;0.60;;;7.60;99.90;;;;;;4952744;28;20217;-67
2022/04/16 07:58:25;;;;;;;1.17;0.68;;;7.80;99.90;;;;;;4952702;28;20209;-69
2022/04/16 08:00:53;;;;;;;1.27;0.93;;;7.90;99.90;;;;;;4951422;29;20328;-68
2022/04/16 08:03:20;;;;;;;0.80;0.80;;;8.00;99.90;;;;;;4961864;28;20208;-66
2022/04/16 08:05:46;;;;;;;1.10;1.10;;;8.10;99.90;;;;;;4959451;28;20247;-67
2022/04/16 08:08:13;;;;;;;2.15;0.65;;;8.20;99.90;;;;;;4963433;28;20213;-66
2022/04/16 08:10:40;;;;;;;2.30;0.98;;;8.30;99.90;;;;;;4962232;28;20268;-66
2022/04/16 08:13:07;;;;;;;0.80;0.80;;;8.40;99.90;;;;;;4957410;28;20205;-66
2022/04/16 08:15:34;;;;;;;0.93;0.93;;;8.50;99.90;;;;;;4951745;28;20263;-66
2022/04/16 08:18:03;;;;;;;0.50;0.50;;;8.60;99.90;;;;;;4952170;28;20236;-65
2022/04/16 08:20:29;;;;;;;0.80;0.80;;;8.70;99.90;;;;;;4968416;28;20601;-66
2022/04/16 08:22:56;;;;;;;0.80;0.80;;;8.80;99.90;;;;;;4971375;28;20307;-65
2022/04/16 08:28:08;;;;;;;0.80;0.80;;;8.90;99.90;;;;;;4955075;28;20563;-66
2022/04/16 08:30:34;;;;;;;1.13;1.10;;;9.00;99.90;;;;;;4957134;28;20236;-66
2022/04/16 08:33:02;;;;;;;0.60;0.60;;;9.10;99.90;;;;;;4968085;28;20259;-66
2022/04/16 08:35:29;;;;;;;1.30;0.80;;;9.20;99.90;;;;;;4956413;28;20198;-66
2022/04/16 08:37:56;;;;;;;0.80;0.80;;;9.20;99.90;;;;;;4957439;28;20732;-66
2022/04/16 08:40:22;;;;;;;0.80;0.80;;;9.30;99.90;;;;;;4974118;28;20741;-66
2022/04/16 08:42:49;;;;;;;0.85;0.85;;;9.40;99.90;;;;;;4958705;28;20248;-66
2022/04/16 08:45:16;;;;;;;0.95;0.90;;;9.50;99.90;;;;;;4956189;28;20217;-66
2022/04/16 08:47:44;;;;;;;0.70;0.70;;;9.50;99.90;;;;;;4956659;28;20256;-66
2022/04/16 08:50:14;;;;;;;0.60;0.60;;;9.60;99.90;;;;;;4965385;28;20206;-66
2022/04/16 08:52:42;;;;;;;0.75;0.75;;;9.70;99.90;;;;;;4956775;28;20345;-66
2022/04/16 08:55:11;;;;;;;0.50;0.50;;;9.80;99.90;;;;;;4966972;28;20201;-66
2022/04/16 08:57:39;;;;;;;0.55;0.55;;;10.00;99.90;;;;;;4975763;28;20396;-67
2022/04/16 09:00:07;;;;;;;0.90;0.90;;;10.10;99.90;;;;;;4966119;28;20292;-66
2022/04/16 09:02:34;;;;;;;1.40;0.77;;;10.30;99.90;;;;;;4954022;28;20251;-66
2022/04/16 09:05:07;;;;;;;0.77;0.77;;;10.30;99.90;;;;;;4957814;28;20261;-66
2022/04/16 09:07:45;;;;;;;0.93;0.93;;;10.30;99.90;;;;;;4956409;28;20579;-66
2022/04/16 09:10:12;;;;;;;2.28;0.60;;;10.40;99.90;;;;;;4953388;28;20279;-66
2022/04/16 09:12:39;;;;;;;0.93;0.90;;;10.50;99.90;;;;;;4954622;28;20666;-65
2022/04/16 09:15:07;;;;;;;0.95;0.95;;;10.50;99.90;;;;;;4954770;28;20257;-65
2022/04/16 09:17:34;;;;;;;1.00;1.00;;;10.40;99.90;;;;;;4954853;28;20236;-66
2022/04/16 09:20:01;;;;;;;0.70;0.70;;;10.50;99.90;;;;;;4954793;28;20598;-66
2022/04/16 09:22:32;;;;;;;0.60;0.60;;;10.50;99.90;;;;;;4954596;28;20233;-66
2022/04/16 09:25:00;;;;;;;1.95;1.17;;;10.40;99.90;;;;;;4936253;29;20226;-66
2022/04/16 09:27:28;;;;;;;0.63;0.63;;;10.60;99.90;;;;;;4944907;28;20291;-67
2022/04/16 09:29:55;;;;;;;3.55;0.90;;;10.60;99.90;;;;;;4953874;28;20213;-67
2022/04/16 09:32:23;;;;;;;0.80;0.80;;;10.70;99.90;;;;;;4953812;28;20228;-66
2022/04/16 09:34:50;;;;;;;0.80;0.80;;;10.70;99.50;;;;;;4954336;28;20233;-67
2022/04/16 09:37:16;;;;;;;0.52;0.52;;;10.60;99.90;;;;;;4964699;28;20641;-66
2022/04/16 09:39:43;;;;;;;0.70;0.70;;;10.60;99.50;;;;;;4954563;28;21091;-67
2022/04/16 09:42:11;;;;;;;0.65;0.65;;;10.50;99.50;;;;;;4953801;28;20263;-67
2022/04/16 09:44:38;;;;;;;0.60;0.60;;;10.60;99.80;;;;;;4953927;28;20245;-67
2022/04/16 09:47:05;;;;;;;0.70;0.70;;;10.60;99.00;;;;;;4954641;28;20570;-67
2022/04/16 09:49:34;;;;;;;0.70;0.70;;;10.70;98.50;;;;;;4955661;28;20205;-65
2022/04/16 09:52:02;;;;;;;1.10;1.00;;;10.80;99.40;;;;;;4958623;28;20678;-66
2022/04/16 09:54:30;;;;;;;0.95;0.88;;;11.00;99.80;;;;;;4956648;28;20232;-67
2022/04/16 09:57:02;;;;;;;1.65;1.60;;;11.00;99.90;;;;;;4962428;28;20205;-66
2022/04/16 09:59:35;;;;;;;0.60;0.60;;;10.90;99.70;;;;;;4955078;28;20209;-65
2022/04/16 10:02:03;;;;;;;0.85;0.85;;;10.80;99.00;;;;;;4957330;28;20243;-66
2022/04/16 10:04:30;;;;;;;0.75;0.75;;;10.80;99.90;;;;;;4954683;28;20205;-67
2022/04/16 10:06:58;;;;;;;1.20;1.17;;;10.90;99.90;;;;;;4958819;28;20295;-66
2022/04/16 10:09:26;;;;;;;0.70;0.70;;;11.00;99.60;;;;;;4954369;28;20288;-67
2022/04/16 10:14:47;;;;;;;0.60;0.60;;;11.10;98.70;;;;;;4950810;28;20212;-67
2022/04/16 10:17:25;;;;;;;0.45;0.45;;;11.20;96.00;;;;;;4972144;28;20223;-66
2022/04/16 10:19:54;;;;;;;0.43;0.40;;;11.20;94.20;;;;;;4969941;28;20374;-67
2022/04/16 10:22:25;;;;;;;0.52;0.52;;;11.20;93.80;;;;;;4969746;28;20797;-66
2022/04/16 10:24:53;;;;;;;0.57;0.57;;;11.30;94.60;;;;;;4952870;28;20572;-65
2022/04/16 10:27:24;;;;;;;1.95;0.50;;;11.30;95.30;;;;;;4954317;28;20217;-65
2022/04/16 10:29:54;;;;;;;0.50;0.50;;;11.40;95.00;;;;;;4963467;28;20291;-66
2022/04/16 10:32:20;;;;;;;0.50;0.50;;;11.40;94.10;;;;;;4961693;28;20232;-67
2022/04/16 10:34:47;;;;;;;0.70;0.70;;;11.40;94.70;;;;;;4963562;28;20204;-66
2022/04/16 10:37:21;;;;;;;0.80;0.80;;;11.40;94.90;;;;;;4973246;28;20212;-66
2022/04/16 10:39:52;;;;;;;0.60;0.60;;;11.40;95.00;;;;;;4971088;28;20232;-66
2022/04/16 10:42:29;;;;;;;0.60;0.60;;;11.50;94.70;;;;;;4973206;28;20240;-67
2022/04/16 10:45:09;;;;;;;2.28;0.40;;;11.60;93.20;;;;;;4946808;28;20201;-66
2022/04/16 10:47:37;;;;;;;0.52;0.52;;;11.50;92.30;;;;;;4954186;28;20233;-66
2022/04/16 10:50:09;;;;;;;0.50;0.50;;;11.60;92.20;;;;;;4968475;28;20714;-66
2022/04/16 10:52:36;;;;;;;0.60;0.60;;;11.60;91.30;;;;;;4959840;28;20244;-66
2022/04/16 10:55:05;;;;;;;0.65;0.60;;;11.70;91.90;;;;;;4948760;28;20205;-66
2022/04/16 10:57:32;;;;;;;0.80;0.80;;;11.90;91.10;;;;;;4952926;28;20272;-66
2022/04/16 11:00:17;;;;;;;1.15;0.40;;;11.90;90.60;;;;;;4948092;28;20275;-66
2022/04/16 11:02:44;;;;;;;0.38;0.38;;;11.90;90.20;;;;;;4944984;28;20239;-66
2022/04/16 11:05:11;;;;;;;0.52;0.52;;;11.90;91.50;;;;;;4952120;28;20232;-66
2022/04/16 11:07:39;;;;;;;0.40;0.40;;;11.90;90.00;;;;;;4945184;28;20203;-67
2022/04/16 11:10:08;;;;;;;0.52;0.52;;;11.90;89.90;;;;;;4945884;28;20268;-67
2022/04/16 11:12:37;;;;;;;0.82;0.60;;;11.90;90.00;;;;;;4952429;28;20260;-66
2022/04/16 11:15:09;;;;;;;0.50;0.50;;;11.90;88.60;;;;;;4945330;28;20209;-67
2022/04/16 11:17:36;;;;;;;0.50;0.50;;;11.80;88.40;;;;;;4944914;28;20210;-66
2022/04/16 11:20:05;;;;;;;1.63;0.40;;;11.80;87.20;;;;;;4951913;28;20236;-66
2022/04/16 11:22:32;;;;;;;0.57;0.57;;;11.70;87.10;;;;;;4952364;28;20228;-66
2022/04/16 11:25:00;;;;;;;0.50;0.50;;;11.80;89.10;;;;;;4952703;28;20206;-66
2022/04/16 11:36:05;;;;;;;0.50;0.50;;;12.00;90.90;;;;;;4930644;29;20245;-66
2022/04/16 11:38:34;;;;;;;0.90;0.90;;;11.90;90.40;;;;;;4930693;29;20237;-67
2022/04/16 11:41:04;;;;;;;0.60;0.60;;;11.90;91.10;;;;;;4939823;28;20229;-66
2022/04/16 11:43:31;;;;;;;0.80;0.80;;;11.90;92.00;;;;;;4952898;28;20328;-67
2022/04/16 11:46:01;;;;;;;0.77;0.60;;;12.10;91.70;;;;;;4952415;28;20217;-66
2022/04/16 11:48:28;;;;;;;0.63;0.60;;;12.20;90.10;;;;;;4952358;28;20204;-66
2022/04/16 11:50:55;;;;;;;0.80;0.80;;;12.30;90.70;;;;;;4951577;28;20245;-66
2022/04/16 11:53:22;;;;;;;0.60;0.60;;;12.50;90.30;;;;;;4943701;29;20573;-66
2022/04/16 11:55:50;;;;;;;0.63;0.63;;;12.50;88.80;;;;;;4952538;28;20543;-67
2022/04/16 11:58:17;;;;;;;0.70;0.70;;;12.40;89.00;;;;;;4952477;28;20241;-67
2022/04/16 12:00:50;;;;;;;0.70;0.70;;;12.40;89.20;;;;;;4951254;28;20650;-65
2022/04/16 12:03:18;;;;;;;0.60;0.60;;;12.30;89.60;;;;;;4952139;28;20244;-67
2022/04/16 12:05:47;;;;;;;1.00;0.85;;;12.30;89.80;;;;;;4952572;28;20590;-66
2022/04/16 12:08:14;;;;;;;1.58;0.85;;;12.30;90.40;;;;;;4952767;28;20229;-65
2022/04/16 12:10:44;;;;;;;0.65;0.50;;;12.40;89.40;;;;;;4944270;29;20289;-66
2022/04/16 12:13:12;;;;;;;4.80;0.90;;;12.30;89.20;;;;;;4953490;28;20280;-66
2022/04/16 12:15:41;;;;;;;0.50;0.50;;;12.40;86.90;;;;;;4950845;28;20205;-66
2022/04/16 12:18:12;;;;;;;0.70;0.70;;;12.50;86.50;;;;;;4955701;28;20299;-66
2022/04/16 12:20:46;;;;;;;0.60;0.60;;;12.50;88.40;;;;;;4955301;28;20303;-65
2022/04/16 12:23:20;;;;;;;0.80;0.80;;;12.50;88.80;;;;;;4956642;28;20201;-66
2022/04/16 12:25:47;;;;;;;0.75;0.70;;;12.60;89.50;;;;;;4950093;29;20236;-65
2022/04/16 12:28:15;;;;;;;0.65;0.65;;;12.60;89.70;;;;;;4956615;28;20642;-66
2022/04/16 12:30:49;;;;;;;1.10;0.90;;;12.70;88.40;;;;;;4952141;28;20237;-66
2022/04/16 12:33:16;;;;;;;0.97;0.97;;;12.90;88.40;;;;;;4954586;28;20205;-66
2022/04/16 12:35:47;;;;;;;0.85;0.85;;;12.80;87.30;;;;;;4955998;28;20524;-66
2022/04/16 12:38:17;;;;;;;1.90;0.80;;;12.90;87.30;;;;;;4955589;28;20213;-66
2022/04/16 12:40:44;;;;;;;0.60;0.60;;;12.90;87.00;;;;;;4954375;28;20841;-66
2022/04/16 12:43:11;;;;;;;0.90;0.90;;;13.00;87.50;;;;;;4955833;28;20647;-66
2022/04/16 12:45:38;;;;;;;0.90;0.90;;;12.90;86.60;;;;;;4957178;28;20574;-66
2022/04/16 12:48:06;;;;;;;1.35;1.25;;;12.80;86.50;;;;;;4955807;28;21105;-66
2022/04/16 12:50:33;;;;;;;0.73;0.73;;;12.80;86.40;;;;;;4955095;28;20209;-65
2022/04/16 12:53:01;;;;;;;0.90;0.90;;;12.80;87.40;;;;;;4955657;28;20471;-66
2022/04/16 12:55:28;;;;;;;2.00;0.70;;;12.90;87.80;;;;;;4955279;28;20474;-66
2022/04/16 12:57:55;;;;;;;1.00;1.00;;;13.00;87.70;;;;;;4955661;28;20476;-67
2022/04/16 13:00:22;;;;;;;0.73;0.70;;;13.00;87.90;;;;;;4954189;28;20531;-67
2022/04/16 13:02:49;;;;;;;0.90;0.90;;;13.10;88.60;;;;;;4954706;28;20460;-66
2022/04/16 13:05:17;;;;;;;0.90;0.90;;;13.10;88.90;;;;;;4954721;28;20472;-67
2022/04/16 13:07:46;;;;;;;1.70;0.80;;;13.10;88.40;;;;;;4954764;28;21060;-66
2022/04/16 13:10:16;;;;;;;0.90;0.90;;;13.00;86.30;;;;;;4954911;28;20461;-66
2022/04/16 13:12:43;;;;;;;1.60;1.50;;;13.00;86.40;;;;;;4955160;28;20472;-66
2022/04/16 13:15:10;;;;;;;0.70;0.70;;;13.10;86.00;;;;;;4954609;28;20464;-66
2022/04/16 13:17:39;;;;;;;0.93;0.93;;;13.10;86.30;;;;;;4954606;28;20460;-66
2022/04/16 13:20:08;;;;;;;1.03;0.93;;;13.20;86.00;;;;;;4954367;28;20808;-66
2022/04/16 13:22:35;;;;;;;1.10;1.10;;;13.30;86.60;;;;;;4955008;28;20496;-67
2022/04/16 13:25:02;;;;;;;0.80;0.80;;;13.20;85.90;;;;;;4953354;28;20465;-65
2022/04/16 13:27:30;;;;;;;0.83;0.83;;;13.20;85.50;;;;;;4954395;28;20582;-65
2022/04/16 13:29:56;;;;;;;0.80;0.80;;;13.20;88.00;;;;;;4953732;28;20473;-66
2022/04/16 13:32:23;;;;;;;0.67;0.67;;;13.20;88.90;;;;;;4954347;28;20543;-66
2022/04/16 13:34:50;;;;;;;0.80;0.80;;;13.20;89.90;;;;;;4957410;28;20965;-65
2022/04/16 13:37:17;;;;;;;0.80;0.80;;;13.30;89.30;;;;;;4955885;28;20560;-65
2022/04/16 13:42:31;;;;;;;0.93;0.93;;;13.40;88.60;;;;;;4939883;28;20482;-66
2022/04/16 13:44:58;;;;;;;1.00;1.00;;;13.30;88.20;;;;;;4958877;28;20460;-66
2022/04/16 13:47:25;;;;;;;0.90;0.90;;;13.30;87.20;;;;;;4952849;28;20492;-67
2022/04/16 13:49:52;;;;;;;0.70;0.70;;;13.30;87.30;;;;;;4955318;28;20965;-66
2022/04/16 13:52:19;;;;;;;0.70;0.70;;;13.40;83.70;;;;;;4960221;28;20480;-66
2022/04/16 13:54:45;;;;;;;0.70;0.70;;;13.50;82.40;;;;;;4954890;28;20477;-66
2022/04/16 13:57:12;;;;;;;5.03;1.17;;;13.60;83.60;;;;;;4963232;28;20479;-66
2022/04/16 13:59:41;;;;;;;1.30;1.30;;;13.60;85.90;;;;;;4957840;28;20467;-66
2022/04/16 14:02:08;;;;;;;0.70;0.70;;;13.70;87.50;;;;;;4965506;28;20590;-66
2022/04/16 14:07:15;;;;;;;1.10;1.10;;;13.50;87.50;;;;;;4955970;28;20675;-69
2022/04/16 14:09:42;;;;;;;1.20;0.90;;;13.40;85.00;;;;;;4953619;28;20460;-71
2022/04/16 14:12:09;;;;;;;0.95;0.95;;;13.40;85.50;;;;;;4953880;28;20606;-68
2022/04/16 14:14:36;;;;;;;0.80;0.80;;;13.40;85.00;;;;;;4953498;28;20256;-69
2022/04/16 14:17:04;;;;;;;1.37;1.03;;;13.40;84.20;;;;;;4960439;28;20510;-67
2022/04/16 14:19:31;;;;;;;1.00;1.00;;;13.40;84.20;;;;;;4971934;28;20460;-67
2022/04/16 14:21:58;;;;;;;0.80;0.80;;;13.40;86.70;;;;;;4958382;28;20539;-68
2022/04/16 14:24:24;;;;;;;1.00;1.00;;;13.50;86.70;;;;;;4953923;28;20496;-67
2022/04/16 14:26:51;;;;;;;1.13;1.03;;;13.40;87.50;;;;;;4970852;28;20924;-67
2022/04/16 14:29:18;;;;;;;0.87;0.87;;;13.50;88.50;;;;;;4978334;28;20468;-68
2022/04/16 14:31:46;;;;;;;0.87;0.87;;;13.40;86.60;;;;;;4955870;28;20527;-67
2022/04/16 14:34:14;;;;;;;0.93;0.93;;;13.40;88.80;;;;;;4954248;28;20559;-67
2022/04/16 14:36:41;;;;;;;1.00;1.00;;;13.40;87.40;;;;;;4953439;28;20464;-68
2022/04/16 14:39:08;;;;;;;1.13;1.13;;;13.40;87.30;;;;;;4958943;28;20530;-68
2022/04/16 14:41:36;;;;;;;1.10;1.10;;;13.40;86.40;;;;;;4960086;28;20471;-67
2022/04/16 14:44:07;;;;;;;1.00;1.00;;;13.40;85.40;;;;;;4967770;28;20520;-69
2022/04/16 14:46:34;;;;;;;0.87;0.87;;;13.40;85.80;;;;;;4952897;28;20643;-70
2022/04/16 14:49:00;;;;;;;0.90;0.90;;;13.50;86.50;;;;;;4953916;28;21128;-70
2022/04/16 14:51:31;;;;;;;0.73;0.73;;;13.40;85.70;;;;;;4960138;28;20503;-71
2022/04/16 14:53:58;;;;;;;0.80;0.80;;;13.40;87.00;;;;;;4967447;28;20473;-69
2022/04/16 14:56:25;;;;;;;0.70;0.70;;;13.40;86.60;;;;;;4958531;28;20892;-68
2022/04/16 14:58:52;;;;;;;1.17;1.17;;;13.50;86.80;;;;;;4962192;28;20465;-69
2022/04/16 15:01:19;;;;;;;1.00;1.00;;;13.50;86.60;;;;;;4971623;28;20518;-69
2022/04/16 15:03:46;;;;;;;0.90;0.90;;;13.50;86.70;;;;;;4955268;28;20530;-67
2022/04/16 15:06:13;;;;;;;2.53;0.93;;;13.50;86.80;;;;;;4971077;28;20820;-69
2022/04/16 15:08:41;;;;;;;1.13;1.03;;;13.50;86.90;;;;;;4933992;29;20548;-68
2022/04/16 15:11:08;;;;;;;1.63;0.80;;;13.50;88.00;;;;;;4969029;28;20562;-68
2022/04/16 15:13:35;;;;;;;0.67;0.67;;;13.60;87.20;;;;;;4972194;28;20471;-69
2022/04/16 15:16:02;;;;;;;0.70;0.70;;;13.60;87.60;;;;;;4970072;28;20495;-69
2022/04/16 15:18:30;;;;;;;0.77;0.77;;;13.50;86.60;;;;;;4964314;28;20911;-69
2022/04/16 15:20:57;;;;;;;0.90;0.90;;;13.50;86.30;;;;;;4953137;28;20485;-67
2022/04/16 15:23:23;;;;;;;1.43;0.90;;;13.80;95.10;;;;;;4952823;28;20496;-68
2022/04/16 15:25:52;;;;;;;1.33;1.33;;;13.70;85.90;;;;;;4966564;28;20461;-67
2022/04/16 15:28:20;;;;;;;0.80;0.80;;;13.80;85.70;;;;;;4953113;28;20488;-68
2022/04/16 15:30:47;;;;;;;1.00;1.00;;;13.80;86.80;;;;;;4966948;28;20932;-67
2022/04/16 15:33:14;;;;;;;0.97;0.97;;;13.70;86.90;;;;;;4967944;28;20966;-68
2022/04/16 15:35:41;;;;;;;0.77;0.77;;;13.70;86.00;;;;;;4952414;28;20516;-69
2022/04/16 15:38:07;;;;;;;1.07;1.07;;;13.70;86.60;;;;;;4960213;28;20452;-68
2022/04/16 15:40:34;;;;;;;1.00;1.00;;;13.60;86.60;;;;;;4962290;28;20465;-68
2022/04/16 15:43:02;;;;;;;0.70;0.70;;;13.60;85.80;;;;;;4961396;28;20518;-67
2022/04/16 15:45:29;;;;;;;1.60;0.80;;;13.70;86.30;;;;;;4956237;28;20460;-67
2022/04/16 15:47:56;;;;;;;1.00;1.00;;;13.70;86.60;;;;;;4970078;28;20494;-69
2022/04/16 15:50:23;;;;;;;1.00;1.00;;;13.70;86.20;;;;;;4968019;28;20498;-66
2022/04/16 15:52:51;;;;;;;0.80;0.80;;;13.80;86.20;;;;;;4949694;28;20580;-69
2022/04/16 15:55:19;;;;;;;1.00;1.00;;;13.80;84.60;;;;;;4959677;28;20508;-68
2022/04/16 15:57:46;;;;;;;1.07;1.07;;;13.80;85.00;;;;;;4952349;28;20470;-67
2022/04/16 16:00:15;;;;;;;1.17;1.17;;;13.80;85.10;;;;;;4957561;28;20519;-68
2022/04/16 16:02:41;;;;;;;1.90;1.43;;;13.80;85.70;;;;;;4968528;28;20464;-68
2022/04/16 16:05:09;;;;;;;0.90;0.90;;;13.80;84.80;;;;;;4960775;28;20543;-68
2022/04/16 16:07:38;;;;;;;1.17;1.00;;;13.80;86.20;;;;;;4966524;28;20590;-67
2022/04/16 16:10:08;;;;;;;0.90;0.90;;;13.80;85.70;;;;;;4957136;28;20987;-67
2022/04/16 16:12:36;;;;;;;1.37;1.37;;;13.80;85.80;;;;;;4956284;28;20496;-68
2022/04/16 16:15:06;;;;;;;1.03;1.03;;;13.70;85.30;;;;;;4958730;28;20516;-68
2022/04/16 16:17:34;;;;;;;0.87;0.87;;;13.70;85.70;;;;;;4970768;28;20455;-68
2022/04/16 16:20:01;;;;;;;0.93;0.93;;;13.70;85.10;;;;;;4957782;28;20464;-68
2022/04/16 16:22:29;;;;;;;0.97;0.87;;;13.80;86.70;;;;;;4958491;28;20491;-67
2022/04/16 16:24:55;;;;;;;0.97;0.97;;;13.80;84.80;;;;;;4959925;28;21132;-67
2022/04/16 16:27:22;;;;;;;0.70;0.70;;;13.60;84.20;;;;;;4953144;28;20505;-67
2022/04/16 16:29:50;;;;;;;0.83;0.83;;;13.60;84.70;;;;;;4951290;28;20468;-68
2022/04/16 16:32:17;;;;;;;0.90;0.90;;;13.60;85.30;;;;;;4942582;28;20583;-67
2022/04/16 16:34:45;;;;;;;1.10;1.10;;;13.50;84.50;;;;;;4949849;28;20540;-68
2022/04/16 16:37:12;;;;;;;0.97;0.97;;;13.40;85.10;;;;;;4951571;28;20476;-66
2022/04/16 16:39:39;;;;;;;0.83;0.83;;;13.40;86.70;;;;;;4955056;28;20929;-68
2022/04/16 16:42:06;;;;;;;0.80;0.80;;;13.40;86.10;;;;;;4951583;28;20519;-67
2022/04/16 16:44:33;;;;;;;1.27;1.17;;;13.40;86.20;;;;;;4951014;28;20885;-67
2022/04/16 16:47:00;;;;;;;0.90;0.90;;;13.40;86.00;;;;;;4950633;28;20487;-67
2022/04/16 16:49:27;;;;;;;1.03;1.03;;;13.30;85.50;;;;;;4951749;28;20495;-66
2022/04/16 16:51:55;;;;;;;1.10;1.10;;;13.20;86.70;;;;;;4951432;28;20485;-66
2022/04/16 16:54:22;;;;;;;1.17;1.17;;;13.30;86.80;;;;;;4951844;28;20460;-67
2022/04/16 16:56:49;;;;;;;0.97;0.97;;;13.20;87.40;;;;;;4951330;28;20814;-66
2022/04/16 16:59:16;;;;;;;1.20;1.20;;;13.20;86.90;;;;;;4952962;28;20468;-67
2022/04/16 17:01:46;;;;;;;1.03;0.90;;;13.10;86.60;;;;;;4954310;28;20846;-67
2022/04/16 17:07:23;;;;;;;0.90;0.90;;;13.00;87.20;;;;;;4954757;28;20514;-67
2022/04/16 17:09:46;;;;;;;1.67;1.67;;;13.00;87.90;;;;;;4954361;28;20469;-68
2022/04/16 17:12:14;;;;;;;1.20;1.20;;;12.90;89.10;;;;;;4955209;28;20847;-68
2022/04/16 17:20:09;;;;;;;1.83;1.63;;;12.80;89.50;;;;;;4953916;28;20595;-69
2022/04/16 17:22:37;;;;;;;1.23;1.23;;;12.70;89.60;;;;;;4954765;28;20225;-67
2022/04/16 17:25:05;;;;;;;1.35;1.25;;;12.60;88.70;;;;;;4954405;28;20209;-67